Time;durP1;ratioP1;P1;durP2;ratioP2;P2;SDS_P1;SDS_P2;PMS_P1;PMS_P2;Temp;Humidity;BMP_temperature;BMP_pressure;BME280_temperature;BME280_humidity;BME280_pressure;Samples;Min_cycle;Max_cycle;Signal;HPM_P1;HPM_P2
2022/10/25 00:00:08;;;;;;;19.70;12.32;;;;;;;13.07;80.84;100774.97;5058234;28;20041;-72
2022/10/25 00:02:35;;;;;;;24.85;13.45;;;;;;;13.60;81.14;100873.13;5040062;28;20037;-72
2022/10/25 00:05:01;;;;;;;19.33;12.38;;;;;;;12.70;80.97;100704.00;5059383;28;20028;-72
2022/10/25 00:07:27;;;;;;;19.80;12.35;;;;;;;13.66;81.10;100867.84;5048358;28;20035;-72
2022/10/25 00:09:52;;;;;;;22.42;12.57;;;;;;;13.59;80.92;100855.56;5044026;28;20041;-72
2022/10/25 00:12:18;;;;;;;23.60;11.57;;;;;;;12.72;81.96;100731.22;5067210;28;20392;-73
2022/10/25 00:14:43;;;;;;;20.45;13.15;;;;;;;12.97;82.13;100776.78;5067624;28;20037;-73
2022/10/25 00:17:09;;;;;;;17.50;12.10;;;;;;;13.43;82.52;100868.81;5057794;28;20036;-72
2022/10/25 00:19:35;;;;;;;19.80;12.35;;;;;;;13.35;82.66;100875.03;5055481;28;20044;-73
2022/10/25 00:22:00;;;;;;;20.75;12.73;;;;;;;12.58;83.07;100768.09;5064074;28;20048;-72
2022/10/25 00:24:26;;;;;;;18.45;12.65;;;;;;;13.08;82.75;100864.53;5065807;28;20037;-73
2022/10/25 00:26:51;;;;;;;19.30;12.63;;;;;;;12.63;82.65;100787.38;5073957;28;20044;-72
2022/10/25 00:29:17;;;;;;;23.48;13.48;;;;;;;13.16;82.50;100882.06;5072556;28;20743;-72
2022/10/25 00:31:43;;;;;;;19.08;12.55;;;;;;;12.32;82.86;100748.88;5064883;28;20119;-71
2022/10/25 00:34:08;;;;;;;24.98;13.82;;;;;;;12.30;83.76;100755.88;5048578;28;20202;-72
2022/10/25 00:36:34;;;;;;;25.27;13.93;;;;;;;12.71;83.79;100824.22;5074752;28;20040;-72
2022/10/25 00:39:00;;;;;;;21.27;14.55;;;;;;;12.15;83.71;100734.00;5064443;28;20482;-72
2022/10/25 00:41:32;;;;;;;18.98;12.80;;;;;;;12.17;83.86;100747.13;5066815;28;20111;-72
2022/10/25 00:44:34;;;;;;;20.67;13.98;;;;;;;12.94;83.77;100863.69;5052491;28;20029;-72
2022/10/25 00:47:03;;;;;;;21.27;14.10;;;;;;;11.90;84.10;100706.81;5043175;28;20032;-73
2022/10/25 00:49:32;;;;;;;18.60;13.95;;;;;;;12.87;83.65;100870.72;5057237;28;20112;-72
2022/10/25 00:52:03;;;;;;;18.30;13.38;;;;;;;12.86;83.89;100832.09;5065131;28;20067;-72
2022/10/25 00:54:32;;;;;;;24.40;15.07;;;;;;;13.04;84.19;100854.00;5059125;28;20056;-72
2022/10/25 00:57:03;;;;;;;23.45;13.48;;;;;;;11.96;85.19;100709.47;5072568;28;20139;-71
2022/10/25 00:59:29;;;;;;;23.92;14.82;;;;;;;12.73;85.44;100854.06;5066541;28;20624;-72
2022/10/25 01:05:16;;;;;;;20.27;12.60;;;;;;;12.56;85.19;100788.28;5064459;28;20110;-72
2022/10/25 01:07:42;;;;;;;21.88;15.45;;;;;;;12.51;85.67;100799.72;5086802;28;20032;-72
2022/10/25 01:10:08;;;;;;;23.00;15.23;;;;;;;12.53;86.69;100829.56;5076691;28;20048;-71
2022/10/25 01:12:33;;;;;;;26.98;14.93;;;;;;;11.57;87.07;100676.13;5073631;28;20048;-73
2022/10/25 01:15:00;;;;;;;27.48;15.40;;;;;;;12.43;87.09;100802.34;5085625;28;20467;-73
2022/10/25 01:17:53;;;;;;;28.38;14.73;;;;;;;12.43;87.43;100820.75;5076491;28;20464;-71
2022/10/25 01:20:46;;;;;;;18.90;14.00;;;;;;;12.53;87.36;100819.03;5085331;28;20036;-74
2022/10/25 01:23:42;;;;;;;23.47;15.33;;;;;;;12.50;87.44;100811.09;5085812;28;20055;-75
2022/10/25 01:26:44;;;;;;;18.08;13.85;;;;;;;12.54;87.16;100807.59;5054118;28;20465;-72
2022/10/25 01:29:41;;;;;;;28.25;14.82;;;;;;;12.56;86.99;100811.13;5037963;28;20106;-73
2022/10/25 01:32:30;;;;;;;24.02;15.40;;;;;;;12.70;86.87;100811.09;5065320;28;20036;-73
2022/10/25 01:35:08;;;;;;;25.73;15.30;;;;;;;12.73;86.62;100797.91;5063983;28;20036;-73
2022/10/25 01:37:56;;;;;;;17.83;13.68;;;;;;;12.65;87.40;100804.06;5064545;28;20384;-73
2022/10/25 01:40:30;;;;;;;24.17;16.10;;;;;;;11.97;87.64;100712.97;5018809;28;20133;-74
2022/10/25 01:43:02;;;;;;;24.52;15.75;;;;;;;12.51;87.93;100812.88;5062530;28;20132;-74
2022/10/25 01:45:33;;;;;;;26.92;16.45;;;;;;;11.60;87.53;100677.00;5063617;28;20052;-73
2022/10/25 01:48:12;;;;;;;31.67;15.85;;;;;;;12.42;87.86;100798.84;5065879;28;21500;-74
2022/10/25 01:50:41;;;;;;;21.85;14.90;;;;;;;12.45;88.20;100804.13;5063507;28;20053;-73
2022/10/25 01:53:07;;;;;;;20.73;15.82;;;;;;;12.32;87.89;100764.66;5064743;28;20025;-72
2022/10/25 01:55:43;;;;;;;20.13;14.88;;;;;;;12.40;87.56;100760.25;5055812;28;20072;-72
2022/10/25 01:58:45;;;;;;;37.45;16.60;;;;;;;11.77;87.85;100658.59;5050298;28;20051;-72
2022/10/25 02:01:29;;;;;;;25.25;17.13;;;;;;;12.31;88.83;100799.72;5070103;28;20057;-73
2022/10/25 02:04:13;;;;;;;21.67;17.08;;;;;;;12.44;88.50;100801.47;5071185;28;20049;-72
2022/10/25 02:06:58;;;;;;;23.05;16.92;;;;;;;11.73;88.18;100680.53;5069773;28;20044;-74
2022/10/25 02:09:35;;;;;;;28.50;19.05;;;;;;;12.48;88.08;100791.81;5065453;28;20040;-73
2022/10/25 02:12:06;;;;;;;25.48;18.88;;;;;;;12.59;87.83;100793.53;5056056;28;20051;-73
2022/10/25 02:14:39;;;;;;;38.45;21.65;;;;;;;12.36;88.11;100785.72;5076299;28;20066;-73
2022/10/25 02:17:12;;;;;;;32.47;23.63;;;;;;;12.08;88.37;100752.38;5082904;28;20553;-73
2022/10/25 02:19:45;;;;;;;32.57;22.83;;;;;;;12.15;88.13;100749.78;5087612;28;20031;-72
2022/10/25 02:22:12;;;;;;;49.25;22.25;;;;;;;11.62;88.29;100650.72;5064863;28;20428;-72
2022/10/25 02:24:41;;;;;;;27.85;18.38;;;;;;;12.12;89.59;100778.69;5075312;28;20041;-73
2022/10/25 02:27:09;;;;;;;27.95;19.15;;;;;;;12.28;89.34;100776.06;5079912;28;20048;-72
2022/10/25 02:29:36;;;;;;;32.60;19.38;;;;;;;12.33;89.13;100758.50;5071701;28;20032;-72
2022/10/25 02:32:03;;;;;;;27.63;20.10;;;;;;;11.96;89.34;100701.56;5068396;28;20754;-72
2022/10/25 02:34:29;;;;;;;33.20;19.35;;;;;;;12.25;89.49;100758.53;5068701;28;20035;-74
2022/10/25 02:36:55;;;;;;;37.03;22.10;;;;;;;12.38;89.39;100781.28;5073803;28;20048;-73
2022/10/25 02:39:23;;;;;;;34.13;19.95;;;;;;;12.13;89.58;100776.97;5052705;28;20041;-74
2022/10/25 02:41:48;;;;;;;29.52;18.83;;;;;;;11.27;90.86;100658.59;5067483;28;20477;-73
2022/10/25 02:44:13;;;;;;;32.17;20.23;;;;;;;11.34;90.65;100657.72;5069237;28;20114;-73
2022/10/25 02:46:39;;;;;;;35.58;19.23;;;;;;;12.00;90.59;100778.69;5069599;28;20098;-74
2022/10/25 02:49:04;;;;;;;38.88;20.52;;;;;;;11.34;90.71;100684.88;5066414;28;20382;-74
2022/10/25 02:51:30;;;;;;;30.80;20.33;;;;;;;11.88;90.01;100755.91;5077955;28;20028;-74
2022/10/25 02:53:55;;;;;;;29.92;18.80;;;;;;;11.94;90.42;100798.00;5083837;28;20380;-72
2022/10/25 02:56:22;;;;;;;33.47;18.52;;;;;;;11.83;90.84;100787.44;5073868;28;20551;-75
2022/10/25 02:58:50;;;;;;;24.40;17.90;;;;;;;11.98;90.42;100768.16;5069213;28;20051;-73
2022/10/25 03:01:17;;;;;;;35.47;19.02;;;;;;;11.52;90.45;100705.03;5074264;28;20040;-73
2022/10/25 03:03:44;;;;;;;31.08;17.77;;;;;;;11.34;90.10;100660.34;5077996;28;20044;-74
2022/10/25 03:06:10;;;;;;;32.90;18.90;;;;;;;11.65;90.72;100749.72;5066115;28;20129;-72
2022/10/25 03:08:37;;;;;;;33.83;17.52;;;;;;;11.96;90.64;100800.59;5075269;28;20036;-72
2022/10/25 03:11:03;;;;;;;36.08;20.02;;;;;;;11.20;90.45;100660.34;5071833;28;20036;-73
2022/10/25 03:13:29;;;;;;;38.10;19.77;;;;;;;11.86;90.18;100759.38;5084330;28;20051;-74
2022/10/25 03:15:54;;;;;;;38.05;16.90;;;;;;;11.84;90.58;100754.13;5089425;28;20040;-73
2022/10/25 03:18:21;;;;;;;27.50;18.90;;;;;;;11.83;90.75;100770.78;5069819;28;20079;-73
2022/10/25 03:20:47;;;;;;;39.00;18.35;;;;;;;11.95;90.84;100776.06;5059194;28;20033;-73
2022/10/25 03:23:12;;;;;;;28.98;18.70;;;;;;;11.19;90.28;100634.94;5068312;28;20395;-73
2022/10/25 03:25:38;;;;;;;36.15;19.48;;;;;;;11.91;91.22;100753.28;5066037;28;20127;-72
2022/10/25 03:28:04;;;;;;;36.85;20.80;;;;;;;11.99;91.35;100746.28;5071178;28;20040;-72
2022/10/25 03:30:36;;;;;;;37.42;19.13;;;;;;;12.10;91.45;100756.78;5085949;28;20055;-72
2022/10/25 03:33:01;;;;;;;33.78;19.73;;;;;;;11.89;91.58;100747.13;5076386;28;20503;-74
2022/10/25 03:35:27;;;;;;;27.52;16.75;;;;;;;11.18;91.79;100628.81;5070529;28;20071;-72
2022/10/25 03:37:53;;;;;;;30.92;18.60;;;;;;;11.21;91.97;100627.94;5068273;28;20755;-73
2022/10/25 03:40:19;;;;;;;37.28;20.20;;;;;;;11.52;91.72;100675.25;5064245;28;20016;-72
2022/10/25 03:42:45;;;;;;;30.40;20.70;;;;;;;11.98;91.88;100756.78;5063451;28;20040;-73
2022/10/25 03:45:11;;;;;;;30.25;18.67;;;;;;;11.28;92.25;100653.31;5066963;28;20459;-72
2022/10/25 03:47:37;;;;;;;36.53;21.13;;;;;;;11.02;92.67;100627.03;5044353;28;20045;-72
2022/10/25 03:50:03;;;;;;;31.05;17.65;;;;;;;11.78;93.51;100760.25;5065310;28;20032;-74
2022/10/25 03:52:29;;;;;;;25.63;18.58;;;;;;;11.80;93.32;100742.75;5068288;28;20050;-73
2022/10/25 03:54:54;;;;;;;45.30;20.33;;;;;;;11.68;93.30;100736.56;5065905;28;20492;-73
2022/10/25 03:57:20;;;;;;;31.92;20.30;;;;;;;11.35;94.13;100710.25;5069918;28;20377;-73
2022/10/25 03:59:45;;;;;;;32.55;20.65;;;;;;;11.55;94.19;100757.59;5087838;28;20057;-71
2022/10/25 04:02:11;;;;;;;27.13;19.65;;;;;;;11.59;93.61;100742.72;5064249;28;20032;-73
2022/10/25 04:04:37;;;;;;;35.20;21.45;;;;;;;11.22;93.33;100645.47;5079320;28;20025;-72
2022/10/25 04:07:02;;;;;;;39.47;20.65;;;;;;;11.81;93.32;100728.69;5067609;28;20040;-75
2022/10/25 04:09:28;;;;;;;46.55;20.95;;;;;;;11.80;93.49;100745.38;5071416;28;20048;-74
2022/10/25 04:11:54;;;;;;;35.17;20.38;;;;;;;10.96;94.02;100619.16;5067458;28;20114;-73
2022/10/25 04:14:19;;;;;;;39.92;19.95;;;;;;;11.54;93.86;100708.56;5066858;28;20040;-74
2022/10/25 04:16:45;;;;;;;41.90;21.00;;;;;;;11.73;93.49;100722.59;5067475;28;20020;-73
2022/10/25 04:19:10;;;;;;;35.55;19.92;;;;;;;11.93;93.32;100746.25;5065981;28;20443;-73
2022/10/25 04:21:36;;;;;;;44.42;22.42;;;;;;;11.78;93.98;100749.75;5048807;28;20135;-73
2022/10/25 04:24:01;;;;;;;33.08;19.63;;;;;;;11.62;94.18;100740.09;5064457;28;20036;-72
2022/10/25 04:26:26;;;;;;;27.95;21.50;;;;;;;10.86;93.61;100604.25;5068524;28;20040;-73
2022/10/25 04:28:54;;;;;;;29.55;20.17;;;;;;;10.98;93.75;100618.28;5065841;28;20029;-72
2022/10/25 04:31:20;;;;;;;30.73;21.17;;;;;;;11.73;93.80;100743.63;5065509;28;20034;-71
2022/10/25 04:33:50;;;;;;;36.38;19.83;;;;;;;11.49;92.77;100680.50;5069759;28;20060;-71
2022/10/25 04:36:17;;;;;;;27.40;20.83;;;;;;;11.18;92.62;100641.06;5070430;28;20483;-72
2022/10/25 04:38:42;;;;;;;27.45;19.65;;;;;;;11.19;92.66;100637.56;5069458;28;20128;-73
2022/10/25 04:41:09;;;;;;;41.17;21.40;;;;;;;11.02;92.73;100606.03;5079806;28;20363;-73
2022/10/25 04:43:35;;;;;;;28.42;20.52;;;;;;;11.62;93.04;100733.06;5074871;28;20032;-73
2022/10/25 04:46:01;;;;;;;33.53;20.35;;;;;;;11.90;93.31;100751.53;5060023;28;20464;-72
2022/10/25 04:48:27;;;;;;;35.13;20.83;;;;;;;11.83;93.96;100737.47;5066458;28;20079;-72
2022/10/25 04:50:53;;;;;;;60.25;22.67;;;;;;;11.83;94.33;100739.22;5071228;28;20040;-72
2022/10/25 04:53:19;;;;;;;43.95;23.73;;;;;;;11.00;94.05;100594.66;5086732;28;20185;-72
2022/10/25 04:55:54;;;;;;;41.38;24.30;;;;;;;11.81;94.23;100726.06;5071882;28;20023;-72
2022/10/25 04:58:20;;;;;;;56.35;25.85;;;;;;;11.42;93.84;100648.09;5062166;28;20036;-72
2022/10/25 05:00:46;;;;;;;52.47;23.98;;;;;;;11.92;93.95;100734.00;5082424;28;20051;-73
2022/10/25 05:03:11;;;;;;;37.88;23.35;;;;;;;11.82;93.94;100733.09;5082331;28;20492;-74
2022/10/25 05:05:37;;;;;;;45.53;21.85;;;;;;;11.83;93.95;100747.13;5055333;28;20066;-72
2022/10/25 05:08:02;;;;;;;38.63;22.55;;;;;;;11.65;94.02;100716.44;5081529;28;20028;-73
2022/10/25 05:10:28;;;;;;;32.70;23.33;;;;;;;11.70;93.94;100725.19;5083599;28;20486;-72
2022/10/25 05:12:53;;;;;;;34.80;21.52;;;;;;;11.81;93.85;100749.72;5073358;28;20060;-72
2022/10/25 05:15:19;;;;;;;41.10;22.25;;;;;;;11.95;93.64;100754.16;5077326;28;20033;-72
2022/10/25 05:17:44;;;;;;;30.45;22.75;;;;;;;11.18;93.48;100636.69;5076401;28;20769;-73
2022/10/25 05:20:10;;;;;;;40.55;21.85;;;;;;;11.98;93.57;100773.44;5052410;28;20075;-74
2022/10/25 05:22:35;;;;;;;39.78;22.60;;;;;;;11.79;93.43;100730.44;5069998;28;20503;-73
2022/10/25 05:25:01;;;;;;;39.72;24.55;;;;;;;11.36;93.28;100640.22;5053339;28;20938;-73
2022/10/25 05:27:26;;;;;;;44.97;24.77;;;;;;;11.95;93.12;100735.75;5072726;28;20771;-73
2022/10/25 05:29:51;;;;;;;62.97;24.30;;;;;;;12.13;92.86;100779.59;5071838;28;20041;-73
2022/10/25 05:32:17;;;;;;;80.60;25.02;;;;;;;12.20;92.85;100776.06;5056453;28;20158;-72
2022/10/25 05:34:42;;;;;;;58.85;23.55;;;;;;;12.16;92.47;100784.84;5056318;28;20020;-73
2022/10/25 05:37:08;;;;;;;77.10;26.67;;;;;;;12.21;92.11;100780.44;5067979;28;20098;-73
2022/10/25 05:39:33;;;;;;;55.97;22.08;;;;;;;11.80;92.12;100724.34;5057776;28;20053;-73
2022/10/25 05:42:01;;;;;;;45.33;23.88;;;;;;;11.32;92.72;100667.34;5051815;28;20152;-75
2022/10/25 05:44:26;;;;;;;35.45;22.77;;;;;;;12.30;91.94;100806.75;5056884;28;20041;-74
2022/10/25 05:46:54;;;;;;;37.58;25.33;;;;;;;12.28;91.84;100805.00;5059275;28;20037;-75
2022/10/25 05:49:19;;;;;;;39.70;26.52;;;;;;;12.28;91.51;100791.84;5060526;28;20032;-74
2022/10/25 05:51:44;;;;;;;37.40;26.13;;;;;;;12.37;91.45;100807.63;5054244;28;20056;-75
2022/10/25 05:54:12;;;;;;;57.78;28.05;;;;;;;12.41;91.04;100802.38;5058155;28;20045;-74
2022/10/25 05:56:38;;;;;;;45.38;28.48;;;;;;;11.77;90.33;100682.25;5071432;28;20087;-74
2022/10/25 05:59:13;;;;;;;42.15;25.38;;;;;;;12.04;90.69;100717.34;5079969;28;20098;-74
2022/10/25 06:01:41;;;;;;;47.83;27.52;;;;;;;11.88;90.36;100671.75;5076921;28;20025;-73
2022/10/25 06:04:08;;;;;;;36.17;27.17;;;;;;;12.77;90.07;100812.81;5073507;28;20043;-73
2022/10/25 06:06:34;;;;;;;38.97;26.95;;;;;;;12.06;89.21;100673.50;5065548;28;20168;-76
2022/10/25 06:09:02;;;;;;;45.60;25.20;;;;;;;12.23;89.71;100679.59;5065504;28;20040;-75
2022/10/25 06:11:28;;;;;;;68.95;28.38;;;;;;;12.27;90.18;100690.09;5082522;28;20043;-74
2022/10/25 06:13:54;;;;;;;62.75;26.70;;;;;;;12.21;90.51;100667.31;5066999;28;20094;-76
2022/10/25 06:16:20;;;;;;;69.90;28.60;;;;;;;12.39;88.73;100695.34;5064364;28;20023;-73
2022/10/25 06:18:46;;;;;;;61.63;29.63;;;;;;;12.41;88.19;100696.22;5069539;28;20049;-73
2022/10/25 06:21:16;;;;;;;54.88;27.35;;;;;;;12.54;87.95;100695.28;5067058;28;20497;-73
2022/10/25 06:23:42;;;;;;;44.33;26.08;;;;;;;13.18;87.88;100781.06;5061434;28;20032;-74
2022/10/25 06:26:13;;;;;;;41.60;24.70;;;;;;;12.80;85.57;100691.66;5074549;28;20387;-73
2022/10/25 06:28:39;;;;;;;48.67;24.13;;;;;;;13.64;84.32;100809.81;5069464;28;20102;-75
2022/10/25 06:31:10;;;;;;;44.28;26.83;;;;;;;13.51;84.99;100787.06;5076450;28;20488;-75
2022/10/25 06:33:36;;;;;;;48.80;25.55;;;;;;;13.73;84.54;100806.25;5074803;28;20040;-73
2022/10/25 06:36:04;;;;;;;41.63;26.10;;;;;;;13.65;84.53;100785.22;5052351;28;20053;-73
2022/10/25 06:38:30;;;;;;;39.03;23.65;;;;;;;13.79;84.31;100794.78;5073680;28;20064;-73
2022/10/25 06:40:59;;;;;;;36.67;22.23;;;;;;;13.21;83.07;100687.94;5066827;28;20440;-73
2022/10/25 06:43:25;;;;;;;40.75;24.23;;;;;;;13.30;82.87;100695.81;5067869;28;20028;-73
2022/10/25 06:45:51;;;;;;;36.83;22.42;;;;;;;13.99;83.44;100789.38;5068354;28;20049;-74
2022/10/25 06:48:17;;;;;;;33.13;22.67;;;;;;;14.11;82.92;100800.69;5079211;28;20082;-73
2022/10/25 06:50:42;;;;;;;52.38;24.83;;;;;;;14.11;82.49;100803.31;5067017;28;20472;-74
2022/10/25 06:53:08;;;;;;;38.53;23.17;;;;;;;13.84;82.63;100761.34;5068850;28;20044;-73
2022/10/25 06:55:33;;;;;;;51.20;24.20;;;;;;;14.34;81.41;100787.28;5064363;28;20940;-75
2022/10/25 06:58:00;;;;;;;41.25;21.27;;;;;;;14.48;80.62;100786.28;5082553;28;20043;-73
2022/10/25 07:00:25;;;;;;;45.85;23.02;;;;;;;14.33;80.30;100743.31;5069702;28;20041;-73
2022/10/25 07:02:55;;;;;;;44.15;24.70;;;;;;;14.78;79.53;100790.41;5073945;28;20043;-74
2022/10/25 07:05:21;;;;;;;39.33;22.77;;;;;;;14.65;78.72;100763.25;5072801;28;20045;-74
2022/10/25 07:07:46;;;;;;;31.48;21.92;;;;;;;14.89;79.06;100780.59;5076966;28;20179;-73
2022/10/25 07:10:12;;;;;;;49.83;23.05;;;;;;;14.22;79.23;100644.88;5078098;28;20106;-73
2022/10/25 07:12:37;;;;;;;39.40;22.98;;;;;;;14.33;77.89;100650.06;5084673;28;20055;-75
2022/10/25 07:15:03;;;;;;;40.45;22.15;;;;;;;14.65;77.55;100677.84;5081526;28;20041;-74
2022/10/25 07:17:29;;;;;;;40.97;24.38;;;;;;;15.35;76.84;100772.06;5078328;28;20516;-73
2022/10/25 07:19:56;;;;;;;45.53;22.15;;;;;;;15.39;76.84;100779.06;5036167;28;20443;-74
2022/10/25 07:22:22;;;;;;;26.40;18.40;;;;;;;15.39;77.00;100763.19;5064134;28;20116;-74
2022/10/25 07:24:48;;;;;;;39.42;22.55;;;;;;;14.83;76.54;100652.97;5062951;28;20494;-73
2022/10/25 07:27:19;;;;;;;31.13;20.08;;;;;;;15.57;76.33;100771.78;5074836;28;20518;-74
2022/10/25 07:29:45;;;;;;;28.52;17.27;;;;;;;15.04;75.12;100631.53;5070181;28;20087;-74
2022/10/25 07:32:10;;;;;;;35.03;19.23;;;;;;;15.84;75.36;100757.25;5056226;28;20476;-74
2022/10/25 07:34:36;;;;;;;44.38;20.88;;;;;;;15.15;75.27;100640.16;5065775;28;20051;-74
2022/10/25 07:37:02;;;;;;;28.27;17.02;;;;;;;15.81;75.01;100742.31;5065509;28;20586;-74
2022/10/25 07:39:27;;;;;;;23.67;17.42;;;;;;;16.06;74.25;100755.16;5060380;28;20404;-75
2022/10/25 07:41:53;;;;;;;29.88;16.90;;;;;;;15.58;72.60;100650.06;5045195;28;20048;-73
2022/10/25 07:44:21;;;;;;;24.13;16.33;;;;;;;15.67;72.17;100635.81;5065893;28;20435;-74
2022/10/25 07:46:48;;;;;;;26.48;15.95;;;;;;;15.75;72.55;100641.84;5064855;28;20028;-74
2022/10/25 07:49:14;;;;;;;38.75;15.90;;;;;;;15.91;71.42;100660.13;5068144;28;20169;-74
2022/10/25 07:51:39;;;;;;;24.70;14.25;;;;;;;16.74;70.33;100753.88;5065122;28;20703;-74
2022/10/25 07:54:05;;;;;;;23.63;15.85;;;;;;;16.31;70.30;100681.41;5064639;28;20926;-73
2022/10/25 07:56:30;;;;;;;23.58;15.50;;;;;;;16.70;70.42;100745.13;5051709;28;20440;-73
2022/10/25 07:58:56;;;;;;;29.83;15.70;;;;;;;16.33;69.71;100642.53;5050714;28;20029;-74
2022/10/25 08:01:27;;;;;;;25.30;14.77;;;;;;;17.00;69.98;100734.84;5068154;28;20143;-74
2022/10/25 08:03:54;;;;;;;30.67;16.20;;;;;;;16.50;69.47;100622.78;5049044;28;20114;-74
2022/10/25 08:06:21;;;;;;;23.17;12.55;;;;;;;16.52;68.90;100632.44;5067808;28;20040;-74
2022/10/25 08:08:47;;;;;;;28.73;14.07;;;;;;;17.16;69.55;100727.41;5062074;28;20071;-75
2022/10/25 08:11:13;;;;;;;30.13;14.27;;;;;;;17.15;68.89;100694.72;5055030;28;20048;-73
2022/10/25 08:13:54;;;;;;;26.38;14.00;;;;;;;17.28;68.91;100701.50;4781753;28;8275973;-74
2022/10/25 08:16:20;;;;;;;27.15;12.38;;;;;;;16.90;68.38;100628.09;5064464;28;20053;-73
2022/10/25 08:18:45;;;;;;;23.15;14.48;;;;;;;17.71;66.45;100720.81;5066237;28;20043;-74
2022/10/25 08:21:11;;;;;;;29.70;16.20;;;;;;;17.66;67.36;100714.75;5066905;28;20049;-74
2022/10/25 08:23:38;;;;;;;37.00;14.02;;;;;;;17.18;67.25;100617.72;5067800;28;20043;-74
2022/10/25 08:26:03;;;;;;;29.13;13.32;;;;;;;17.14;67.23;100594.88;5049007;28;20044;-74
2022/10/25 08:28:30;;;;;;;20.23;12.13;;;;;;;17.67;67.09;100664.28;5070957;28;20032;-74
2022/10/25 08:30:55;;;;;;;23.67;11.93;;;;;;;17.56;66.63;100644.22;5052737;28;20155;-74
2022/10/25 08:33:21;;;;;;;25.25;12.95;;;;;;;17.51;65.78;100617.81;5077909;28;20063;-74
2022/10/25 08:35:46;;;;;;;29.63;13.10;;;;;;;18.16;66.13;100709.97;5066868;28;20538;-75
2022/10/25 08:38:12;;;;;;;18.80;12.23;;;;;;;17.78;64.73;100602.97;5066584;28;20036;-74
2022/10/25 08:40:49;;;;;;;28.13;12.63;;;;;;;18.47;64.82;100698.50;5067975;28;20078;-74
2022/10/25 08:43:36;;;;;;;29.13;14.38;;;;;;;18.44;65.65;100699.44;5058576;28;20480;-74
2022/10/25 08:46:31;;;;;;;28.92;12.88;;;;;;;18.64;64.46;100692.72;5068109;28;20496;-75
2022/10/25 08:49:10;;;;;;;21.35;12.82;;;;;;;18.65;64.59;100705.09;5063142;28;20492;-75
2022/10/25 08:51:40;;;;;;;25.08;10.98;;;;;;;18.71;63.77;100711.09;5074464;28;20048;-73
2022/10/25 08:54:20;;;;;;;20.67;11.57;;;;;;;18.69;64.07;100704.09;5062871;28;20364;-73
2022/10/25 08:56:47;;;;;;;24.90;13.40;;;;;;;18.65;64.42;100686.47;5053669;28;20131;-73
2022/10/25 08:59:20;;;;;;;30.42;11.13;;;;;;;18.74;63.65;100704.81;5061272;28;20033;-73
2022/10/25 09:01:50;;;;;;;17.73;12.25;;;;;;;18.24;62.94;100595.53;5066142;28;20620;-73
2022/10/25 09:04:16;;;;;;;38.80;12.52;;;;;;;19.03;62.55;100705.78;5064631;28;20036;-74
2022/10/25 09:06:52;;;;;;;20.23;10.65;;;;;;;18.47;62.80;100595.75;5065065;28;20056;-74
2022/10/25 09:09:26;;;;;;;21.55;10.65;;;;;;;19.16;62.33;100702.69;5061501;28;20052;-75
2022/10/25 09:12:29;;;;;;;19.65;10.05;;;;;;;19.24;62.00;100702.44;5065425;28;20056;-74
2022/10/25 09:15:16;;;;;;;17.73;10.10;;;;;;;19.24;62.39;100702.44;5028980;28;20055;-74
2022/10/25 09:17:52;;;;;;;15.57;9.70;;;;;;;19.23;62.14;100675.91;5061905;28;20052;-72
2022/10/25 09:20:20;;;;;;;25.55;10.70;;;;;;;19.47;61.25;100696.41;5064762;28;20052;-74
2022/10/25 09:22:49;;;;;;;24.73;9.80;;;;;;;19.52;61.00;100698.91;5065208;28;20027;-73
2022/10/25 09:25:19;;;;;;;16.17;9.98;;;;;;;19.49;61.45;100678.59;5064871;28;20106;-73
2022/10/25 09:27:58;;;;;;;26.05;9.77;;;;;;;19.24;60.76;100619.97;5066325;28;20052;-74
2022/10/25 09:30:26;;;;;;;17.20;9.73;;;;;;;19.11;61.19;100587.59;5061039;28;20485;-73
2022/10/25 09:32:56;;;;;;;28.30;9.98;;;;;;;19.78;60.54;100680.34;5065538;28;20107;-73
2022/10/25 09:35:40;;;;;;;17.13;9.18;;;;;;;19.87;60.55;100668.47;5074619;28;20174;-73
2022/10/25 09:38:09;;;;;;;;;;;;;;;19.91;60.69;100667.44;5071213;28;20035;-73
2022/10/25 09:40:44;;;;;;;15.77;10.02;;;;;;;19.46;61.00;100558.06;5078402;28;19908;-74
2022/10/25 09:43:17;;;;;;;12.82;8.43;;;;;;;19.91;59.45;100621.31;5084662;28;20515;-73
2022/10/25 09:45:52;;;;;;;30.65;10.07;;;;;;;20.15;58.92;100630.22;5067751;28;20065;-75
2022/10/25 09:48:35;;;;;;;21.08;8.75;;;;;;;20.45;59.15;100662.88;5085883;28;20476;-74
2022/10/25 09:51:16;;;;;;;;;;;;;;;20.35;59.65;100657.00;5062431;28;20448;-74
2022/10/25 09:53:44;;;;;;;30.73;8.23;;;;;;;20.18;59.27;100609.66;5053029;28;19940;-74
2022/10/25 09:56:11;;;;;;;19.73;7.63;;;;;;;20.26;58.06;100555.22;5061712;28;20033;-73
2022/10/25 09:58:41;;;;;;;13.23;6.78;;;;;;;20.37;57.76;100540.56;5062265;28;20040;-73
2022/10/25 10:01:21;;;;;;;11.02;6.80;;;;;;;21.05;57.19;100644.63;5060874;28;20037;-73
2022/10/25 10:03:47;;;;;;;16.23;7.47;;;;;;;20.72;57.06;100590.78;5052092;28;20040;-73
2022/10/25 10:06:23;;;;;;;17.45;8.77;;;;;;;21.01;57.66;100653.66;5075652;28;20095;-74
2022/10/25 10:08:56;;;;;;;38.25;8.45;;;;;;;20.92;57.04;100622.88;5078510;28;20040;-73
2022/10/25 10:11:22;;;;;;;27.45;8.70;;;;;;;20.52;55.77;100532.88;5066207;28;20079;-74
2022/10/25 10:13:59;;;;;;;25.15;8.27;;;;;;;21.12;55.76;100621.19;5071637;28;20052;-74
2022/10/25 10:16:37;;;;;;;14.93;7.53;;;;;;;20.63;57.21;100552.91;5066391;28;20124;-75
2022/10/25 10:19:21;;;;;;;19.48;6.03;;;;;;;20.40;55.81;100519.09;5067607;28;20046;-74
2022/10/25 10:21:56;;;;;;;15.65;7.10;;;;;;;20.32;56.17;100515.88;5059926;28;20040;-73
2022/10/25 10:24:34;;;;;;;12.88;6.68;;;;;;;20.47;56.11;100530.41;5063190;28;20048;-74
2022/10/25 10:27:22;;;;;;;17.33;6.70;;;;;;;20.35;56.21;100505.09;5054127;28;20037;-73
2022/10/25 10:29:59;;;;;;;14.80;6.30;;;;;;;20.95;56.98;100601.41;5043371;28;20068;-73
2022/10/25 10:32:28;;;;;;;16.15;7.75;;;;;;;21.01;56.04;100593.16;5060118;28;20148;-73
2022/10/25 10:34:56;;;;;;;14.13;7.70;;;;;;;20.56;56.42;100495.41;5071326;28;20047;-74
2022/10/25 10:37:25;;;;;;;13.93;8.05;;;;;;;21.16;55.67;100591.66;5076775;28;20153;-73
2022/10/25 10:39:54;;;;;;;17.90;10.23;;;;;;;21.17;55.92;100585.41;5068633;28;20049;-73
2022/10/25 10:42:33;;;;;;;11.77;7.00;;;;;;;21.29;54.79;100584.03;5065430;28;20874;-74
2022/10/25 10:45:07;;;;;;;20.92;9.38;;;;;;;21.38;54.73;100591.66;5056360;28;21712;-73
2022/10/25 10:47:39;;;;;;;13.25;6.20;;;;;;;21.24;55.20;100554.88;5066311;28;20037;-74
2022/10/25 10:50:19;;;;;;;31.40;7.00;;;;;;;20.71;54.54;100455.72;5045900;28;20467;-74
2022/10/25 10:52:46;;;;;;;15.02;7.93;;;;;;;21.38;54.84;100578.31;5058658;28;20842;-73
2022/10/25 10:55:31;;;;;;;12.70;5.95;;;;;;;21.42;54.88;100573.72;5060659;28;20064;-73
2022/10/25 10:58:25;;;;;;;12.20;6.72;;;;;;;20.70;54.49;100449.53;5072091;28;20044;-74
2022/10/25 11:00:53;;;;;;;;;;;;;;;21.56;53.82;100576.66;5072934;28;20044;-72
2022/10/25 11:03:40;;;;;;;15.30;5.18;;;;;;;21.57;53.26;100569.56;5065611;28;19920;-74
2022/10/25 11:06:13;;;;;;;24.20;4.78;;;;;;;21.45;53.26;100537.09;5068008;28;20084;-74
2022/10/25 11:08:40;;;;;;;14.23;5.10;;;;;;;21.19;52.95;100471.47;5066021;28;20484;-73
2022/10/25 11:11:22;;;;;;;17.42;5.78;;;;;;;21.21;53.09;100448.25;5060081;28;20535;-73
2022/10/25 11:14:00;;;;;;;21.40;5.45;;;;;;;21.90;52.99;100559.19;5073346;28;20136;-73
2022/10/25 11:16:28;;;;;;;10.27;5.00;;;;;;;21.98;52.07;100566.84;5067386;28;20049;-74
2022/10/25 11:19:24;;;;;;;18.00;5.70;;;;;;;21.89;51.86;100534.28;5070133;28;20078;-73
2022/10/25 11:22:14;;;;;;;13.40;5.38;;;;;;;22.10;51.43;100544.91;5081416;28;20137;-73
2022/10/25 11:24:54;;;;;;;15.35;6.40;;;;;;;21.57;50.80;100455.59;5067283;28;20029;-73
2022/10/25 11:27:31;;;;;;;14.60;6.82;;;;;;;22.12;50.72;100535.00;5069740;28;20382;-73